Glassell, California
Current Conditions -  °F | °C
As of 2:47 AM on Tuesday 21 Oct 2014 (Local Time) from KCQT Reporting Station
Overcast Overcast  
Wind Chill: 68°   Ceiling: 1200
Heat Index: 68°   Visibility: 10mi
Dew Point: 61°   Wind: 0mph
Humidity: 78%   Direction: NA
Pressure: 29.88"   Gusts: NA
Location:  34.1092°N, 118.228°W
Report Text: KCQT 210947Z AUTO 00000KT 10SM OVC012 20/16 A2988 RMK AO2 SLP117 T02000161
Loading
Personal Weather Stations






























Interactive Weather Map
Tropical Storm Tracking
New forecast layout! Learn more

10-Day Weather Forecast

Advertisements
Track Severe Weather on mobile